Time;durP1;ratioP1;P1;durP2;ratioP2;P2;SDS_P1;SDS_P2;PMS_P1;PMS_P2;Temp;Humidity;BMP_temperature;BMP_pressure;BME280_temperature;BME280_humidity;BME280_pressure;Samples;Min_cycle;Max_cycle;Signal;HPM_P1;HPM_P2
2022/08/12 00:43:58;;;;;;;5.55;2.10;;;20.80;99.90;;;;;;5034048;28;20128;-69
2022/08/12 00:46:43;;;;;;;4.60;2.00;;;20.80;99.90;;;;;;5035306;28;20049;-69
2022/08/12 00:49:09;;;;;;;3.20;2.10;;;20.80;99.90;;;;;;5035480;28;20103;-69
2022/08/12 00:54:23;;;;;;;4.15;2.03;;;20.80;99.90;;;;;;5035425;28;20053;-69
2022/08/12 00:56:49;;;;;;;10.88;2.78;;;20.70;99.90;;;;;;5035517;28;20038;-69
2022/08/12 00:59:15;;;;;;;2.83;2.25;;;20.70;99.90;;;;;;5035222;28;20461;-69
2022/08/12 01:01:45;;;;;;;6.13;2.50;;;20.60;99.90;;;;;;5035234;28;20489;-69
2022/08/12 01:12:27;;;;;;;4.38;2.55;;;20.50;99.90;;;;;;5035041;28;20049;-71
2022/08/12 01:14:53;;;;;;;4.85;2.30;;;20.40;99.90;;;;;;5034917;28;20457;-71
2022/08/12 01:17:21;;;;;;;4.35;2.47;;;20.40;99.90;;;;;;5034851;28;20045;-71
2022/08/12 01:19:51;;;;;;;6.90;2.15;;;20.40;99.90;;;;;;5034830;28;20041;-71
2022/08/12 01:22:36;;;;;;;6.38;2.38;;;20.40;99.90;;;;;;5035050;28;20489;-71
2022/08/12 01:25:31;;;;;;;3.78;2.25;;;20.40;99.90;;;;;;5034816;28;20049;-71
2022/08/12 01:27:59;;;;;;;5.05;2.70;;;20.30;99.90;;;;;;5032456;28;20128;-71
2022/08/12 01:30:29;;;;;;;3.53;2.20;;;20.20;99.90;;;;;;5034932;28;20056;-71
2022/08/12 01:32:58;;;;;;;4.22;2.10;;;20.20;99.90;;;;;;5035526;28;20092;-71
2022/08/12 01:35:25;;;;;;;5.85;2.17;;;20.20;99.90;;;;;;5034504;28;20489;-71
2022/08/12 01:37:56;;;;;;;3.95;2.10;;;20.20;99.90;;;;;;5034522;28;20041;-71
2022/08/12 01:40:31;;;;;;;4.13;2.47;;;20.20;99.90;;;;;;5034568;28;20073;-71
2022/08/12 01:43:04;;;;;;;5.07;2.65;;;20.10;99.90;;;;;;5034455;28;20041;-71
2022/08/12 01:45:31;;;;;;;3.90;2.47;;;20.10;99.90;;;;;;5034410;28;20128;-71
2022/08/12 01:48:21;;;;;;;6.70;2.72;;;20.00;99.90;;;;;;5034384;28;20049;-71
2022/08/12 01:51:02;;;;;;;6.65;2.90;;;20.00;99.90;;;;;;5034509;28;20548;-71
2022/08/12 01:54:03;;;;;;;5.22;3.10;;;19.90;99.90;;;;;;5034312;28;20041;-71
2022/08/12 01:56:38;;;;;;;6.78;3.13;;;19.90;99.90;;;;;;5034447;28;20033;-71
2022/08/12 02:01:54;;;;;;;6.35;3.65;;;19.80;99.90;;;;;;5034111;28;20049;-71
2022/08/12 02:13:47;;;;;;;7.72;2.97;;;19.70;99.90;;;;;;5034175;28;20045;-71
2022/08/12 02:16:35;;;;;;;5.10;3.80;;;19.60;99.90;;;;;;5033768;28;20045;-71
2022/08/12 02:19:18;;;;;;;5.60;3.78;;;19.60;99.90;;;;;;5033777;28;20043;-71
2022/08/12 02:22:08;;;;;;;6.20;3.92;;;19.60;99.90;;;;;;5033733;28;20397;-71
2022/08/12 02:24:37;;;;;;;4.57;3.45;;;19.50;99.90;;;;;;5033684;28;20033;-71
2022/08/12 02:27:07;;;;;;;6.55;3.55;;;19.50;99.90;;;;;;5033653;28;20140;-71
2022/08/12 02:29:33;;;;;;;7.15;4.00;;;19.40;99.90;;;;;;5033564;28;20056;-71
2022/08/12 02:32:00;;;;;;;5.03;3.92;;;19.40;99.90;;;;;;5033794;28;20414;-71
2022/08/12 02:34:27;;;;;;;6.05;4.03;;;19.40;99.90;;;;;;5033757;28;20033;-71
2022/08/12 02:36:54;;;;;;;7.20;4.03;;;19.40;99.90;;;;;;5033337;28;20053;-71
2022/08/12 02:39:23;;;;;;;9.85;4.07;;;19.40;99.90;;;;;;5033623;28;20489;-71
2022/08/12 02:41:51;;;;;;;7.97;4.07;;;19.40;99.90;;;;;;5034623;28;20049;-71
2022/08/12 02:44:18;;;;;;;7.15;4.50;;;19.40;99.90;;;;;;5033527;28;20083;-71
2022/08/12 02:46:47;;;;;;;6.93;4.43;;;19.30;99.90;;;;;;5033339;28;20163;-71
2022/08/12 02:49:30;;;;;;;6.78;4.35;;;19.30;99.90;;;;;;5033160;28;20493;-71
2022/08/12 02:51:58;;;;;;;6.30;4.07;;;19.30;99.90;;;;;;5017548;28;20180;-71
2022/08/12 02:54:24;;;;;;;8.73;4.53;;;19.20;99.90;;;;;;5016861;28;20038;-71
2022/08/12 02:56:51;;;;;;;6.80;4.50;;;19.20;99.90;;;;;;5033248;28;20114;-71
2022/08/12 02:59:20;;;;;;;6.00;4.10;;;19.20;99.90;;;;;;5032984;28;20041;-71
2022/08/12 03:02:02;;;;;;;4.78;4.35;;;19.30;99.90;;;;;;5032989;28;20041;-71
2022/08/12 03:04:35;;;;;;;9.80;4.38;;;19.20;99.90;;;;;;5032968;28;20052;-71
2022/08/12 03:07:29;;;;;;;8.35;4.20;;;19.10;99.90;;;;;;5032643;28;20045;-72
2022/08/12 03:09:57;;;;;;;7.57;4.20;;;19.10;99.90;;;;;;5016658;28;20037;-72
2022/08/12 03:12:24;;;;;;;9.40;4.22;;;19.00;99.90;;;;;;5032791;28;20041;-72
2022/08/12 03:14:52;;;;;;;10.10;4.97;;;19.20;99.90;;;;;;5032708;28;20048;-72
2022/08/12 03:18:05;;;;;;;10.23;4.43;;;19.00;99.90;;;;;;5032564;28;20084;-73
2022/08/12 03:20:39;;;;;;;9.25;4.78;;;19.00;99.90;;;;;;5015699;28;20045;-72
2022/08/12 03:23:10;;;;;;;5.30;4.50;;;18.90;99.90;;;;;;5032603;28;20037;-72
2022/08/12 03:25:38;;;;;;;15.90;4.70;;;18.90;99.90;;;;;;5032744;28;20444;-72
2022/08/12 03:28:07;;;;;;;8.60;4.85;;;18.90;99.90;;;;;;5032390;28;20095;-72
2022/08/12 03:30:32;;;;;;;7.95;4.53;;;18.80;99.90;;;;;;5032455;28;20599;-72
2022/08/12 03:33:00;;;;;;;8.95;4.22;;;18.80;99.90;;;;;;5032399;28;20113;-72
2022/08/12 03:35:31;;;;;;;4.97;4.40;;;18.80;99.90;;;;;;5015829;28;20044;-72
2022/08/12 03:38:04;;;;;;;10.27;4.68;;;18.70;99.90;;;;;;5016170;28;20056;-72
2022/08/12 04:00:23;;;;;;;6.15;4.45;;;18.50;99.90;;;;;;5032054;28;20049;-72
2022/08/12 04:03:00;;;;;;;6.38;4.40;;;18.50;99.90;;;;;;5015548;28;20059;-72
2022/08/12 04:05:27;;;;;;;7.50;4.40;;;18.50;99.90;;;;;;5031807;28;20037;-72
2022/08/12 04:07:54;;;;;;;8.20;4.47;;;18.50;99.90;;;;;;5033094;28;20512;-72
2022/08/12 04:10:20;;;;;;;6.80;4.50;;;18.50;99.90;;;;;;5015465;28;20506;-72
2022/08/12 04:13:15;;;;;;;8.10;4.43;;;18.50;99.90;;;;;;5031928;28;20069;-72
2022/08/12 04:15:44;;;;;;;7.05;4.35;;;18.50;99.90;;;;;;5032059;28;20202;-72
2022/08/12 04:18:12;;;;;;;7.07;4.60;;;18.40;99.90;;;;;;5032796;28;20049;-72
2022/08/12 04:20:41;;;;;;;7.15;4.32;;;18.40;99.90;;;;;;5035963;28;20044;-72
2022/08/12 04:23:08;;;;;;;6.55;4.20;;;18.40;99.90;;;;;;5036216;28;20076;-72
2022/08/12 04:25:38;;;;;;;9.25;4.40;;;18.40;99.90;;;;;;5035791;28;20046;-72
2022/08/12 04:28:06;;;;;;;7.22;4.75;;;18.40;99.90;;;;;;5035892;28;20096;-72
2022/08/12 04:30:31;;;;;;;8.88;4.68;;;18.40;99.90;;;;;;5035782;28;20417;-73
2022/08/12 04:32:57;;;;;;;6.05;4.30;;;18.40;99.90;;;;;;5035750;28;20048;-73
2022/08/12 04:35:24;;;;;;;6.10;4.40;;;18.40;99.90;;;;;;5035653;28;20045;-72
2022/08/12 04:37:55;;;;;;;5.50;4.80;;;18.30;99.90;;;;;;5035666;28;20033;-72
2022/08/12 04:40:24;;;;;;;7.82;4.70;;;18.40;99.90;;;;;;5035913;28;20045;-73
2022/08/12 04:42:50;;;;;;;7.50;4.20;;;18.30;99.90;;;;;;5035577;28;20508;-73
2022/08/12 04:45:17;;;;;;;7.80;4.22;;;18.40;99.90;;;;;;5035513;28;20378;-73
2022/08/12 04:47:43;;;;;;;8.75;4.03;;;18.40;99.90;;;;;;5035355;28;20045;-73
2022/08/12 04:50:10;;;;;;;6.78;4.78;;;18.40;99.90;;;;;;5035437;28;20386;-72
2022/08/12 04:52:35;;;;;;;7.32;4.70;;;18.40;99.90;;;;;;5035433;28;20588;-73
2022/08/12 04:55:02;;;;;;;9.07;4.10;;;18.40;99.90;;;;;;5035338;28;20077;-73
2022/08/12 04:57:27;;;;;;;6.32;4.40;;;18.40;99.90;;;;;;5035508;28;20053;-72
2022/08/12 04:59:53;;;;;;;7.38;4.47;;;18.40;99.90;;;;;;5035236;28;20163;-73
2022/08/12 05:02:19;;;;;;;7.13;4.70;;;18.50;99.90;;;;;;5035239;28;20037;-73
2022/08/12 05:04:46;;;;;;;6.05;4.38;;;18.50;99.90;;;;;;5035190;28;20056;-73
2022/08/12 05:07:12;;;;;;;7.72;4.70;;;18.50;99.90;;;;;;5034890;28;20528;-72
2022/08/12 05:09:38;;;;;;;7.63;4.30;;;18.50;99.90;;;;;;5018643;28;20042;-72
2022/08/12 05:12:04;;;;;;;6.50;4.57;;;18.50;99.90;;;;;;5035330;28;20053;-72
2022/08/12 05:14:31;;;;;;;7.30;4.47;;;18.50;99.90;;;;;;5035188;28;20045;-72
2022/08/12 05:16:57;;;;;;;6.75;4.55;;;18.60;99.90;;;;;;5035092;28;20120;-72
2022/08/12 05:19:22;;;;;;;5.75;4.45;;;18.60;99.90;;;;;;5034923;28;20514;-72
2022/08/12 05:21:48;;;;;;;6.53;5.00;;;18.60;99.90;;;;;;5018381;28;20154;-72
2022/08/12 05:24:13;;;;;;;8.43;4.70;;;18.60;99.90;;;;;;5034828;28;20048;-72
2022/08/12 05:26:39;;;;;;;8.10;4.68;;;18.70;99.90;;;;;;5034799;28;20049;-72
2022/08/12 05:29:06;;;;;;;9.63;5.25;;;18.70;99.90;;;;;;5034277;28;20042;-72
2022/08/12 05:31:31;;;;;;;6.50;4.32;;;18.80;99.90;;;;;;5034688;28;20069;-73
2022/08/12 05:33:57;;;;;;;8.68;4.80;;;18.80;99.90;;;;;;5034653;28;20127;-72
2022/08/12 05:36:23;;;;;;;10.25;4.40;;;18.80;99.90;;;;;;5034514;28;20041;-72
2022/08/12 05:38:57;;;;;;;8.85;4.00;;;18.80;99.90;;;;;;5034558;28;20048;-73
2022/08/12 05:41:23;;;;;;;9.27;4.13;;;18.90;99.90;;;;;;5034564;28;20061;-73
2022/08/12 05:43:52;;;;;;;7.03;3.80;;;18.90;99.90;;;;;;5034659;28;20037;-73
2022/08/12 05:46:20;;;;;;;6.03;4.28;;;19.00;99.90;;;;;;5034284;28;20386;-75
2022/08/12 05:48:48;;;;;;;7.38;4.07;;;19.00;99.90;;;;;;5034368;28;20049;-75
2022/08/12 05:51:14;;;;;;;5.82;3.65;;;19.10;99.90;;;;;;5034299;28;20502;-75
2022/08/12 05:53:41;;;;;;;5.60;3.60;;;19.20;99.90;;;;;;5034243;28;20041;-75
2022/08/12 05:56:27;;;;;;;7.38;4.00;;;19.20;99.90;;;;;;5034435;28;20041;-75
2022/08/12 05:58:54;;;;;;;8.48;3.45;;;19.30;99.90;;;;;;5017718;28;20052;-75
2022/08/12 06:01:22;;;;;;;5.47;3.70;;;19.30;99.90;;;;;;5034114;28;20080;-75
2022/08/12 06:03:49;;;;;;;6.82;3.97;;;19.40;99.90;;;;;;5017632;28;20409;-74
2022/08/12 06:06:16;;;;;;;7.45;3.25;;;19.50;99.90;;;;;;5017318;28;20073;-74
2022/08/12 06:08:47;;;;;;;6.47;3.72;;;19.50;99.90;;;;;;5033874;28;20083;-74
2022/08/12 06:11:17;;;;;;;7.28;3.75;;;19.60;99.90;;;;;;5034041;28;20042;-74
2022/08/12 06:13:44;;;;;;;6.45;3.40;;;19.60;99.90;;;;;;5017383;28;20041;-75
2022/08/12 06:16:13;;;;;;;7.32;3.30;;;19.70;99.90;;;;;;5034029;28;20069;-74
2022/08/12 06:18:40;;;;;;;6.05;2.97;;;19.80;99.90;;;;;;5033864;28;20103;-74
2022/08/12 06:21:07;;;;;;;8.02;3.35;;;19.80;99.90;;;;;;5033792;28;20045;-75
2022/08/12 06:23:33;;;;;;;6.32;2.90;;;19.90;99.90;;;;;;5034194;28;20041;-75
2022/08/12 06:25:59;;;;;;;9.75;3.08;;;20.10;99.90;;;;;;5033938;28;20085;-74
2022/08/12 06:28:27;;;;;;;9.93;3.10;;;20.10;99.90;;;;;;5033591;28;20424;-74
2022/08/12 06:30:53;;;;;;;5.03;2.88;;;20.20;99.90;;;;;;5033627;28;20054;-74
2022/08/12 06:33:22;;;;;;;7.68;3.25;;;20.30;99.90;;;;;;5033596;28;20094;-73
2022/08/12 06:35:49;;;;;;;4.63;2.65;;;20.40;99.90;;;;;;5033500;28;20048;-72
2022/08/12 06:38:20;;;;;;;7.40;2.67;;;20.40;99.90;;;;;;5033575;28;20037;-73
2022/08/12 06:43:33;;;;;;;4.53;2.58;;;20.60;99.90;;;;;;5033471;28;20451;-73
2022/08/12 06:45:59;;;;;;;15.57;2.58;;;20.60;99.90;;;;;;5033194;28;20045;-73
2022/08/12 06:48:28;;;;;;;5.07;2.40;;;20.70;99.90;;;;;;5033173;28;20044;-73
2022/08/12 06:50:54;;;;;;;6.10;2.72;;;20.80;99.90;;;;;;5033180;28;20045;-73
2022/08/12 06:53:22;;;;;;;6.78;2.45;;;20.90;99.90;;;;;;5033070;28;20501;-73
2022/08/12 06:55:48;;;;;;;3.97;2.35;;;21.00;99.90;;;;;;5033040;28;20037;-72
2022/08/12 06:58:15;;;;;;;5.43;2.08;;;21.10;99.90;;;;;;5033216;28;20415;-72
2022/08/12 07:00:42;;;;;;;7.10;2.55;;;21.20;99.90;;;;;;5032994;28;20095;-73
2022/08/12 07:03:08;;;;;;;5.28;2.40;;;21.30;99.90;;;;;;5032961;28;20124;-73
2022/08/12 07:05:34;;;;;;;7.35;2.10;;;21.40;99.90;;;;;;5016275;28;20041;-72
2022/08/12 07:08:00;;;;;;;3.92;2.28;;;21.40;99.90;;;;;;5032827;28;20036;-73
2022/08/12 07:10:26;;;;;;;4.40;2.20;;;21.50;99.90;;;;;;5032839;28;20041;-73
2022/08/12 07:12:53;;;;;;;6.07;2.45;;;21.60;99.90;;;;;;5016290;28;20072;-73
2022/08/12 07:15:24;;;;;;;3.72;2.38;;;21.70;99.90;;;;;;5032989;28;20087;-72
2022/08/12 07:18:04;;;;;;;5.82;2.33;;;21.80;99.90;;;;;;5032914;28;20064;-73
2022/08/12 07:20:34;;;;;;;7.60;2.40;;;21.90;99.90;;;;;;5032629;28;20559;-73
2022/08/12 07:23:02;;;;;;;7.15;2.28;;;21.90;99.90;;;;;;5032628;28;20049;-74
2022/08/12 07:25:33;;;;;;;7.28;2.33;;;22.10;99.90;;;;;;5032493;28;20045;-73
2022/08/12 07:28:01;;;;;;;5.68;2.10;;;22.20;99.90;;;;;;5032459;28;20041;-73
2022/08/12 07:30:33;;;;;;;6.85;2.25;;;22.30;99.90;;;;;;5032854;28;20068;-72
2022/08/12 07:33:01;;;;;;;4.00;2.30;;;22.40;99.90;;;;;;5032525;28;20057;-72
2022/08/12 07:35:31;;;;;;;8.15;2.60;;;22.50;99.90;;;;;;5032294;28;20041;-71
2022/08/12 07:37:59;;;;;;;8.20;2.03;;;22.60;99.90;;;;;;5032345;28;20088;-71
2022/08/12 07:40:26;;;;;;;8.95;2.47;;;22.70;99.90;;;;;;5032335;28;20498;-71
2022/08/12 07:42:52;;;;;;;7.18;2.10;;;22.80;99.90;;;;;;5032299;28;20087;-71
2022/08/12 07:45:19;;;;;;;9.68;2.50;;;23.00;99.90;;;;;;5032489;28;20049;-71
2022/08/12 07:47:46;;;;;;;8.00;2.63;;;23.10;99.90;;;;;;5032161;28;20081;-71
2022/08/12 07:50:14;;;;;;;5.47;2.45;;;23.20;99.90;;;;;;5032151;28;20045;-71
2022/08/12 07:52:45;;;;;;;9.35;2.55;;;23.30;99.90;;;;;;5015556;28;20048;-71
2022/08/12 07:55:12;;;;;;;6.28;2.38;;;23.40;99.90;;;;;;5032422;28;20045;-71
2022/08/12 07:57:54;;;;;;;5.65;2.00;;;23.60;99.90;;;;;;5031967;28;20084;-71
2022/08/12 08:00:20;;;;;;;8.02;2.47;;;23.70;99.90;;;;;;5032357;28;20045;-71
2022/08/12 08:02:45;;;;;;;10.30;1.98;;;23.80;99.90;;;;;;5032016;28;20045;-71
2022/08/12 08:05:11;;;;;;;3.53;2.03;;;24.00;99.90;;;;;;5033220;28;20049;-71
2022/08/12 08:07:37;;;;;;;7.32;2.47;;;24.10;99.90;;;;;;5032942;28;20048;-71
2022/08/12 08:10:07;;;;;;;6.65;1.90;;;24.30;99.90;;;;;;5031887;28;20037;-71
2022/08/12 08:15:18;;;;;;;5.72;2.03;;;24.60;99.90;;;;;;5031867;28;20482;-72
2022/08/12 08:18:01;;;;;;;6.13;2.05;;;24.70;99.90;;;;;;5031720;28;20037;-71
2022/08/12 08:20:32;;;;;;;2.97;1.80;;;25.00;96.50;;;;;;5031877;28;20053;-72
2022/08/12 08:23:04;;;;;;;5.53;2.22;;;25.10;98.00;;;;;;5031850;28;20122;-72
2022/08/12 08:25:31;;;;;;;4.97;2.13;;;25.30;97.20;;;;;;5031802;28;20077;-71
2022/08/12 08:27:58;;;;;;;8.48;1.92;;;25.50;95.30;;;;;;5031718;28;20163;-72
2022/08/12 08:30:25;;;;;;;4.38;1.77;;;25.60;93.30;;;;;;5031961;28;20524;-72
2022/08/12 08:32:50;;;;;;;6.95;2.13;;;25.80;93.40;;;;;;5031690;28;20039;-71
2022/08/12 08:35:16;;;;;;;5.82;2.05;;;25.90;91.30;;;;;;5031742;28;20108;-71
2022/08/12 08:37:45;;;;;;;8.23;1.95;;;26.20;90.60;;;;;;5031611;28;20037;-70
2022/08/12 08:42:55;;;;;;;3.75;1.88;;;26.50;81.40;;;;;;5031642;28;20528;-71
2022/08/12 08:45:20;;;;;;;5.60;2.10;;;26.70;80.20;;;;;;5031939;28;20084;-71
2022/08/12 08:47:47;;;;;;;7.55;2.10;;;26.90;76.60;;;;;;5031395;28;20417;-71
2022/08/12 08:50:14;;;;;;;8.35;2.00;;;27.00;78.20;;;;;;5031838;28;20056;-72
2022/08/12 08:52:45;;;;;;;5.13;1.92;;;27.20;74.20;;;;;;5031575;28;20033;-72
2022/08/12 08:55:12;;;;;;;5.40;2.03;;;27.30;72.30;;;;;;5031783;28;20044;-72
2022/08/12 08:57:49;;;;;;;2.97;1.63;;;27.50;71.50;;;;;;5031427;28;20049;-72
2022/08/12 09:00:20;;;;;;;5.22;2.20;;;27.70;70.70;;;;;;5031554;28;20046;-72
2022/08/12 09:02:47;;;;;;;6.70;2.05;;;27.80;68.50;;;;;;5031457;28;20037;-72
2022/08/12 09:05:13;;;;;;;6.72;2.00;;;28.00;68.10;;;;;;5033882;28;20044;-72
2022/08/12 09:07:48;;;;;;;7.53;2.22;;;28.10;65.20;;;;;;5034932;28;20120;-74
2022/08/12 09:10:18;;;;;;;4.85;1.98;;;28.30;64.40;;;;;;5018634;28;20051;-73
2022/08/12 09:15:35;;;;;;;7.75;1.83;;;28.50;60.60;;;;;;5034971;28;20049;-70
2022/08/12 09:18:01;;;;;;;6.30;1.80;;;28.70;60.60;;;;;;5034997;28;20045;-70
2022/08/12 09:20:32;;;;;;;5.03;1.80;;;28.90;61.20;;;;;;5018662;28;20034;-70
2022/08/12 09:23:00;;;;;;;6.00;1.63;;;29.00;61.70;;;;;;5034800;28;20420;-70
2022/08/12 09:25:30;;;;;;;10.18;2.20;;;29.20;61.50;;;;;;5034753;28;20047;-71
2022/08/12 09:27:56;;;;;;;3.35;1.80;;;29.30;58.00;;;;;;5034847;28;20091;-70
2022/08/12 09:30:23;;;;;;;8.05;2.10;;;29.60;57.70;;;;;;5034677;28;20080;-71
2022/08/12 09:32:50;;;;;;;7.40;2.10;;;29.70;56.10;;;;;;5034940;28;20038;-70
2022/08/12 09:35:22;;;;;;;4.40;1.63;;;29.80;56.90;;;;;;5034939;28;20076;-70
2022/08/12 09:37:49;;;;;;;5.25;1.60;;;29.80;54.90;;;;;;5034690;28;20063;-71
2022/08/12 09:40:17;;;;;;;3.63;1.80;;;30.00;53.70;;;;;;5034555;28;20048;-71
2022/08/12 09:45:30;;;;;;;6.28;2.00;;;30.30;53.50;;;;;;5034439;28;20132;-71
2022/08/12 09:47:58;;;;;;;6.10;1.83;;;30.50;51.80;;;;;;5035908;28;20042;-71
2022/08/12 09:50:24;;;;;;;6.18;1.73;;;30.70;52.00;;;;;;5034505;28;20405;-73
2022/08/12 09:53:12;;;;;;;6.97;1.98;;;30.80;50.50;;;;;;5034944;28;20041;-70
2022/08/12 09:55:51;;;;;;;7.88;1.90;;;30.90;51.10;;;;;;5034297;28;20046;-71
2022/08/12 09:58:27;;;;;;;4.30;1.67;;;31.00;49.80;;;;;;5034369;28;20041;-71
2022/08/12 10:01:01;;;;;;;7.55;2.10;;;31.10;48.80;;;;;;5034225;28;20049;-70
2022/08/12 10:03:30;;;;;;;6.05;1.85;;;31.30;49.30;;;;;;5034221;28;20425;-70
2022/08/12 10:05:56;;;;;;;5.93;1.98;;;31.40;48.50;;;;;;5034104;28;20049;-70
2022/08/12 10:08:26;;;;;;;7.13;1.40;;;31.60;47.90;;;;;;5033993;28;20544;-70
2022/08/12 10:13:40;;;;;;;5.03;1.50;;;31.80;46.10;;;;;;5033992;28;20037;-70
2022/08/12 10:16:23;;;;;;;4.88;1.60;;;32.00;44.10;;;;;;5016065;28;20038;-70
2022/08/12 10:18:54;;;;;;;5.35;1.60;;;32.10;44.10;;;;;;5033914;28;20045;-71
2022/08/12 10:21:25;;;;;;;4.87;1.50;;;32.30;43.60;;;;;;5033863;28;20049;-71
2022/08/12 10:23:52;;;;;;;7.55;1.70;;;32.40;43.30;;;;;;5035044;28;20347;-71
2022/08/12 10:31:53;;;;;;;4.78;1.63;;;32.80;41.30;;;;;;5033934;28;20041;-70
2022/08/12 10:34:22;;;;;;;7.63;1.65;;;32.80;41.10;;;;;;5033552;28;20405;-71
2022/08/12 10:36:50;;;;;;;13.85;1.95;;;33.00;41.80;;;;;;5033653;28;20052;-70
2022/08/12 10:39:18;;;;;;;4.43;1.33;;;33.10;41.20;;;;;;5033479;28;20041;-71
2022/08/12 10:44:29;;;;;;;5.32;1.77;;;33.00;40.80;;;;;;5033385;28;20045;-68
2022/08/12 10:46:55;;;;;;;5.82;1.50;;;33.20;40.80;;;;;;5033250;28;20051;-68
2022/08/12 10:49:26;;;;;;;2.55;1.33;;;33.20;39.50;;;;;;5016911;28;20046;-68
2022/08/12 10:51:53;;;;;;;9.53;1.37;;;33.30;39.10;;;;;;5033323;28;20057;-68
2022/08/12 10:54:20;;;;;;;6.18;1.80;;;33.40;38.00;;;;;;5033332;28;20112;-68
2022/08/12 10:56:48;;;;;;;2.97;1.25;;;33.40;39.10;;;;;;5033040;28;20037;-68
2022/08/12 10:59:20;;;;;;;4.72;1.40;;;33.60;38.80;;;;;;5033055;28;20099;-68
2022/08/12 11:01:47;;;;;;;8.88;1.38;;;33.60;38.70;;;;;;5033114;28;20038;-68
2022/08/12 11:04:13;;;;;;;3.20;1.20;;;33.70;38.00;;;;;;5032935;28;20041;-68
2022/08/12 11:06:46;;;;;;;3.95;1.25;;;33.70;37.30;;;;;;5032781;28;20041;-68
2022/08/12 11:09:20;;;;;;;5.22;1.45;;;33.70;38.80;;;;;;5033148;28;20121;-68
2022/08/12 11:11:47;;;;;;;6.38;1.55;;;33.80;39.20;;;;;;5033035;28;20053;-68
2022/08/12 11:14:26;;;;;;;4.43;1.30;;;34.00;39.40;;;;;;5032770;28;20049;-68
2022/08/12 11:16:56;;;;;;;3.85;1.40;;;34.20;37.60;;;;;;5016271;28;20433;-68
2022/08/12 11:19:23;;;;;;;5.75;1.27;;;34.30;38.20;;;;;;5032686;28;20041;-68
2022/08/12 11:21:49;;;;;;;6.57;1.30;;;34.40;37.30;;;;;;5032597;28;20033;-68
2022/08/12 11:24:15;;;;;;;2.88;1.20;;;34.50;36.80;;;;;;5032534;28;20111;-68
2022/08/12 11:26:40;;;;;;;6.47;1.27;;;34.50;37.40;;;;;;5033576;28;20034;-69
2022/08/12 11:29:06;;;;;;;8.63;1.77;;;34.40;37.20;;;;;;5032548;28;20037;-68
2022/08/12 11:31:31;;;;;;;6.70;1.38;;;34.60;37.70;;;;;;5032428;28;20063;-68
2022/08/12 11:33:57;;;;;;;7.38;1.45;;;34.70;37.60;;;;;;5032682;28;20042;-70
2022/08/12 11:36:23;;;;;;;8.80;1.60;;;34.70;37.90;;;;;;5032346;28;20461;-70
2022/08/12 11:38:49;;;;;;;7.57;1.40;;;34.70;37.40;;;;;;5032614;28;20099;-70
2022/08/12 11:41:15;;;;;;;6.85;1.50;;;34.70;37.30;;;;;;5032407;28;20087;-70
2022/08/12 11:43:41;;;;;;;4.28;1.27;;;34.80;37.50;;;;;;5033760;28;20052;-70
2022/08/12 11:46:07;;;;;;;3.33;1.30;;;35.00;36.40;;;;;;5032400;28;20045;-70
2022/08/12 11:48:38;;;;;;;4.35;1.10;;;35.00;36.40;;;;;;5032170;28;20044;-70
2022/08/12 11:51:07;;;;;;;7.05;1.40;;;35.10;36.00;;;;;;5032223;28;20124;-70
2022/08/12 11:53:34;;;;;;;7.68;1.65;;;35.10;35.50;;;;;;5033372;28;20037;-70
2022/08/12 11:56:00;;;;;;;7.25;1.20;;;35.30;35.50;;;;;;5032330;28;20164;-70
2022/08/12 11:58:26;;;;;;;9.60;1.55;;;35.30;34.60;;;;;;5032053;28;20045;-70
2022/08/12 12:00:52;;;;;;;6.25;1.25;;;35.40;34.70;;;;;;5015889;28;20068;-70
2022/08/12 12:03:18;;;;;;;3.72;1.10;;;35.40;34.70;;;;;;5032047;28;20539;-70
2022/08/12 12:05:44;;;;;;;6.05;1.13;;;35.40;34.90;;;;;;5031836;28;20559;-70
2022/08/12 12:08:19;;;;;;;3.58;1.20;;;35.50;35.80;;;;;;5031948;28;20038;-70
2022/08/12 12:10:44;;;;;;;7.43;1.20;;;35.60;36.40;;;;;;5032207;28;20118;-70
2022/08/12 12:13:10;;;;;;;6.50;1.40;;;35.80;37.00;;;;;;5032215;28;20478;-70
2022/08/12 12:15:37;;;;;;;6.75;1.63;;;35.80;35.50;;;;;;5031790;28;20049;-70
2022/08/12 12:18:03;;;;;;;4.85;1.27;;;35.90;35.80;;;;;;5031884;28;20041;-70
2022/08/12 12:20:28;;;;;;;6.43;1.48;;;35.90;35.60;;;;;;5031801;28;20045;-70
2022/08/12 12:22:54;;;;;;;4.25;1.20;;;36.00;35.40;;;;;;5031785;28;20049;-70
2022/08/12 12:25:20;;;;;;;3.72;1.10;;;36.10;34.60;;;;;;5031813;28;20053;-71
2022/08/12 12:27:51;;;;;;;4.72;1.27;;;36.00;34.30;;;;;;5031633;28;20129;-70
2022/08/12 12:30:17;;;;;;;4.95;1.35;;;36.00;35.40;;;;;;5032000;28;20076;-70
2022/08/12 12:32:43;;;;;;;5.60;1.38;;;36.10;35.60;;;;;;5031966;28;20124;-70
2022/08/12 12:35:10;;;;;;;2.75;1.30;;;36.20;35.90;;;;;;5031632;28;20378;-70
2022/08/12 12:37:50;;;;;;;4.50;1.67;;;36.20;34.60;;;;;;5031903;28;20041;-70
2022/08/12 12:40:15;;;;;;;5.45;1.35;;;36.30;35.00;;;;;;5034388;28;20113;-70
2022/08/12 12:42:41;;;;;;;2.55;1.30;;;36.40;35.00;;;;;;5035614;28;20133;-70
2022/08/12 12:45:07;;;;;;;3.95;1.50;;;36.40;35.30;;;;;;5019404;28;20041;-70
2022/08/12 12:47:33;;;;;;;6.38;1.67;;;36.40;36.10;;;;;;5018893;28;20076;-70
2022/08/12 12:49:58;;;;;;;7.00;1.70;;;36.60;35.70;;;;;;5019018;28;20072;-70
2022/08/12 12:52:24;;;;;;;5.18;1.45;;;36.70;35.30;;;;;;5035491;28;20045;-70
2022/08/12 12:54:54;;;;;;;4.50;1.20;;;36.80;33.80;;;;;;5036916;28;20045;-70
2022/08/12 12:57:19;;;;;;;3.95;1.40;;;36.80;34.40;;;;;;5036550;28;20151;-70
2022/08/12 13:00:13;;;;;;;6.55;1.60;;;36.80;33.60;;;;;;5035561;28;20132;-70
2022/08/12 13:02:30;;;;;;;5.10;1.45;;;36.90;34.40;;;;;;5035457;28;20053;-70
2022/08/12 13:04:58;;;;;;;5.90;1.48;;;36.90;34.00;;;;;;5035517;28;20034;-70
2022/08/12 13:07:25;;;;;;;6.00;1.50;;;36.90;34.80;;;;;;5035004;28;20076;-71
2022/08/12 13:09:50;;;;;;;5.60;1.30;;;36.90;34.20;;;;;;5035150;28;20529;-71
2022/08/12 13:12:16;;;;;;;8.77;1.65;;;37.00;34.70;;;;;;5035336;28;20125;-70
2022/08/12 13:14:42;;;;;;;6.28;1.52;;;37.10;35.30;;;;;;5035057;28;20053;-71
2022/08/12 13:17:10;;;;;;;6.72;1.55;;;37.20;34.60;;;;;;5018729;28;20046;-71
2022/08/12 13:19:37;;;;;;;4.05;1.50;;;37.00;34.40;;;;;;5034874;28;20050;-71
2022/08/12 13:22:17;;;;;;;8.70;1.77;;;37.10;34.20;;;;;;5034914;28;20088;-71
2022/08/12 13:24:43;;;;;;;7.68;1.80;;;37.10;35.10;;;;;;5035124;28;20041;-71
2022/08/12 13:27:09;;;;;;;4.15;1.58;;;37.00;33.60;;;;;;5035054;28;20448;-71
2022/08/12 13:29:37;;;;;;;8.20;1.40;;;37.00;33.10;;;;;;5034856;28;20390;-71
2022/08/12 13:32:04;;;;;;;5.93;1.80;;;36.90;33.60;;;;;;5034751;28;20411;-70
2022/08/12 13:34:31;;;;;;;8.00;1.73;;;36.80;33.50;;;;;;5034712;28;20045;-70
2022/08/12 13:36:57;;;;;;;12.10;2.10;;;36.70;34.20;;;;;;5034677;28;20073;-70
2022/08/12 13:39:23;;;;;;;7.22;1.40;;;36.60;34.60;;;;;;5034925;28;20041;-71
2022/08/12 13:41:50;;;;;;;6.55;1.50;;;36.60;34.70;;;;;;5034825;28;20037;-71
2022/08/12 13:44:15;;;;;;;4.18;1.90;;;36.60;34.20;;;;;;5034770;28;20041;-71
2022/08/12 13:46:41;;;;;;;2.70;1.58;;;36.70;34.30;;;;;;5034618;28;20038;-72
2022/08/12 13:49:10;;;;;;;4.57;1.60;;;36.80;34.80;;;;;;5034727;28;20116;-72
2022/08/12 13:51:36;;;;;;;8.85;1.63;;;36.70;34.40;;;;;;5034055;28;20048;-73
2022/08/12 13:54:05;;;;;;;5.10;1.38;;;36.80;34.90;;;;;;5034347;28;20504;-73
2022/08/12 13:56:32;;;;;;;6.03;1.50;;;36.70;34.30;;;;;;5034191;28;20045;-73
2022/08/12 13:59:04;;;;;;;5.40;1.50;;;36.70;34.90;;;;;;5034221;28;20049;-72
2022/08/12 14:01:30;;;;;;;2.45;1.52;;;36.80;34.50;;;;;;5034196;28;20041;-72
2022/08/12 14:03:55;;;;;;;3.55;1.50;;;36.80;35.00;;;;;;5034154;28;20041;-73
2022/08/12 14:06:21;;;;;;;5.97;1.55;;;36.70;34.40;;;;;;5033867;28;20120;-72
2022/08/12 14:08:47;;;;;;;4.15;1.77;;;36.70;35.20;;;;;;5033970;28;20037;-72
2022/08/12 14:11:13;;;;;;;6.72;1.77;;;36.70;34.70;;;;;;5034008;28;20041;-72
2022/08/12 14:13:40;;;;;;;6.38;1.60;;;36.70;34.60;;;;;;5033929;28;20041;-72
2022/08/12 14:16:09;;;;;;;6.38;1.42;;;36.60;34.20;;;;;;5033786;28;20041;-72
2022/08/12 14:18:38;;;;;;;6.13;1.67;;;36.60;35.10;;;;;;5033853;28;20060;-72
2022/08/12 14:21:08;;;;;;;8.40;1.70;;;36.70;35.40;;;;;;5033784;28;20052;-72
2022/08/12 14:23:35;;;;;;;4.50;1.50;;;36.60;34.90;;;;;;5034305;28;20038;-72
2022/08/12 14:26:04;;;;;;;6.30;1.70;;;36.50;34.90;;;;;;5017088;28;20421;-72
2022/08/12 14:28:31;;;;;;;3.92;1.55;;;36.50;35.10;;;;;;5033644;28;20532;-72
2022/08/12 14:31:05;;;;;;;2.85;1.50;;;36.50;34.70;;;;;;5034803;28;20052;-72
2022/08/12 14:33:40;;;;;;;5.32;1.80;;;36.50;34.80;;;;;;5033776;28;20048;-72
2022/08/12 14:36:10;;;;;;;9.05;2.10;;;36.40;34.30;;;;;;5033667;28;20045;-72
2022/08/12 14:38:39;;;;;;;4.45;1.42;;;36.30;34.20;;;;;;5033692;28;20033;-72
2022/08/12 14:41:12;;;;;;;4.85;1.65;;;36.20;34.70;;;;;;5033352;28;20045;-72
2022/08/12 14:43:38;;;;;;;4.18;1.77;;;36.20;35.40;;;;;;5033323;28;20041;-72
2022/08/12 14:46:06;;;;;;;8.50;1.92;;;36.30;35.40;;;;;;5033229;28;20037;-72